Flight Track Log - Related Links

Times and Time Zones

All times are in EDT time to prevent confusion due to time zone crossing. See the BJS542 flight status page for this flight to view local times or setup timezone preferences in your user account.

Time Position Orientation Groundspeed Altitude Reporting Facility
EDT Latitude Longitude Course Direction KTS MPH feet Rate Location/Type
Thu 07:56:11 AM 27.9833 -82.0167 139° Southeast 152 175 1,400  Level Tampa TRACON
Thu 07:56:53 AM 27.9667 -82.0000 139° Southeast 207 238 2,000 1,471 Climbing Tampa TRACON
Thu 07:57:53 AM 27.9000 -81.9833 168° South 254 292 3,900 2,371 Climbing Tampa TRACON
Thu 07:58:57 AM 27.8131 -81.9744 175° South 245 282 6,900 5,371 Climbing Miami Center
Thu 07:59:57 AM 27.7489 -81.9597 169° South 256 295 15,000 4,050 Climbing Miami Center
Thu 08:00:57 AM 27.6494 -81.9411 171° South 307 353 15,000 -950 Level Miami Center
Thu 08:01:57 AM 27.5706 -81.8675 140° Southeast 359 413 13,100 -300 Descending Miami Center
Thu 08:02:57 AM 27.5022 -81.7942 136° Southeast 365 420 14,400 950 Climbing Miami Center
Thu 08:03:57 AM 27.4275 -81.7164 137° Southeast 371 427 15,000 300 Climbing Miami Center
Thu 08:04:57 AM 27.3489 -81.6358 138° Southeast 378 435 15,000 -50 Level Miami Center
Thu 08:05:57 AM 27.2703 -81.5531 137° Southeast 378 435 14,900  Descending Miami Center
Thu 08:06:57 AM 27.1933 -81.4731 137° Southeast 378 435 15,000 -350 Climbing Miami Center
Thu 08:07:57 AM 27.1167 -81.3953 138° Southeast 378 435 14,200 -1,100 Descending Miami Center
Thu 08:08:57 AM 27.0417 -81.3178 137° Southeast 373 429 12,800 -1,200 Descending Miami Center
Thu 08:09:57 AM 26.9586 -81.2331 138° Southeast 368 423 11,800 -900 Descending Miami Center
Thu 08:10:57 AM 26.8878 -81.1606 138° Southeast 362 417 11,000 -1,250 Descending Miami Center
Thu 08:11:57 AM 26.8272 -81.0956 136° Southeast 342 394 9,300 -1,000 Descending Miami Center
Thu 08:12:57 AM 26.8147 -81.0136 100° East 289 333 9,000 -150 Descending Miami Center
Thu 08:13:57 AM 26.8011 -80.9108 98° East 295 339 9,000  Level Miami Center
Thu 08:14:57 AM 26.7658 -80.8236 114° Southeast 302 348 9,000  Level Miami Center
Thu 08:15:57 AM 26.7267 -80.7339 116° Southeast 313 360 9,000  Level Miami Center
Thu 08:16:57 AM 26.6931 -80.6583 116° Southeast 308 354 9,000 -800 Level Miami Center
Thu 08:17:57 AM 26.6514 -80.5686 117° Southeast 308 354 7,400 -1,550 Descending Miami Center
Thu 08:18:57 AM 26.6219 -80.4981 115° Southeast 291 335 5,900 -1,300 Descending Miami Center
Thu 08:19:57 AM 26.5864 -80.4156 116° Southeast 274 315 4,800 -1,250 Descending Miami Center
Thu 08:20:57 AM 26.5589 -80.3497 115° Southeast 263 303 3,400 -1,161 Descending Miami Center
Thu 08:21:30 AM 26.5389 -80.3028 115° Southeast 250 288 3,000 -690 Descending Miami Center
Thu 08:22:24 AM 26.4961 -80.2575 137° Southeast 235 270 2,400 -522 Descending Miami Center
Thu 08:23:25 AM 26.4492 -80.2167 142° Southeast 204 235 2,000 -375 Descending Miami Center
Thu 08:24:32 AM 26.4017 -80.1850 149° Southeast 182 209 1,600 -465 Descending Miami Center
Thu 08:25:34 AM 26.3669 -80.1564 144° Southeast 122 140 1,000 -689 Descending Miami Center
Thu 08:26:34 AM 26.3656 -80.1192 92° East 114 131 200 -800 Descending Miami Center
Thu 08:28:00 AM 26.3667 -80.1000 180° South  Level FlightAware
Thu 08:35:00 AM 26.3785 -80.1077 180° South  Level Estimated
Thu 08:36:00 AM 26.3785 -80.1077 180° South  Level Estimated
Thu 08:37:00 AM 26.3785 -80.1077 180° South  Level Estimated
Thu 08:38:00 AM 26.3785 -80.1077 180° South  Level Estimated
Thu 08:39:00 AM 26.3785 -80.1077 180° South  Level Estimated
Thu 08:40:00 AM 26.3785 -80.1077 180° South  Level Estimated
Thu 08:41:00 AM 26.3785 -80.1077 180° South  Level Estimated
Thu 08:42:00 AM 26.3785 -80.1077 180° South  Level Estimated

Login

Don't have an account? Register now (free) for customized features, flight alerts, and more!